Time;durP1;ratioP1;P1;durP2;ratioP2;P2;SDS_P1;SDS_P2;PMS_P1;PMS_P2;Temp;Humidity;BMP_temperature;BMP_pressure;BME280_temperature;BME280_humidity;BME280_pressure;Samples;Min_cycle;Max_cycle;Signal;HPM_P1;HPM_P2
2021/07/31 00:01:07;;;;;;;;;;;;;;;27.49;40.34;94242.34;2949588;40;19952;-80
2021/07/31 00:03:09;;;;;;;;;;;;;;;27.31;40.71;94246.47;2949381;40;19941;-78
2021/07/31 00:05:11;;;;;;;;;;;;;;;27.11;40.89;94240.03;2945424;40;19941;-79
2021/07/31 00:07:12;;;;;;;;;;;;;;;27.11;41.02;94247.31;2947819;40;19957;-79
2021/07/31 00:09:14;;;;;;;;;;;;;;;27.17;41.27;94251.59;2944465;40;19970;-80
2021/07/31 00:11:16;;;;;;;;;;;;;;;27.25;41.08;94242.97;2954193;40;19951;-79
2021/07/31 00:13:17;;;;;;;;;;;;;;;27.41;41.22;94245.63;2949996;40;20061;-79
2021/07/31 00:15:19;;;;;;;;;;;;;;;27.52;40.79;94244.50;2949407;40;19937;-79
2021/07/31 00:17:21;;;;;;;;;;;;;;;27.60;40.99;94248.47;2948226;40;19945;-80
2021/07/31 00:19:22;;;;;;;;;;;;;;;27.64;41.01;94239.59;2940748;40;19944;-69
2021/07/31 00:21:24;;;;;;;;;;;;;;;27.68;40.70;94243.31;2946355;40;20042;-69
2021/07/31 00:23:26;;;;;;;;;;;;;;;27.74;40.54;94244.13;2951518;40;20179;-69
2021/07/31 00:25:28;;;;;;;;;;;;;;;27.78;40.95;94243.28;2951510;40;19951;-69
2021/07/31 00:27:29;;;;;;;;;;;;;;;27.77;40.89;94241.69;2951317;40;19953;-69
2021/07/31 00:29:31;;;;;;;;;;;;;;;27.70;41.84;94245.75;2950573;40;19941;-70
2021/07/31 00:31:33;;;;;;;;;;;;;;;27.49;42.73;94239.66;2951726;40;20350;-68
2021/07/31 00:33:34;;;;;;;;;;;;;;;27.16;44.01;94245.41;2951133;40;20056;-68
2021/07/31 00:35:36;;;;;;;;;;;;;;;26.99;44.35;94247.59;2948846;40;19973;-68
2021/07/31 00:37:37;;;;;;;;;;;;;;;26.87;44.40;94239.84;2949873;40;20024;-67
2021/07/31 00:39:39;;;;;;;;;;;;;;;26.89;44.33;94243.06;2951510;40;19937;-68
2021/07/31 00:41:40;;;;;;;;;;;;;;;27.00;43.93;94243.84;2951230;40;20254;-70
2021/07/31 00:43:42;;;;;;;;;;;;;;;27.10;43.86;94245.69;2952825;40;20157;-81
2021/07/31 00:45:44;;;;;;;;;;;;;;;27.00;43.41;94249.22;2950326;40;20302;-79
2021/07/31 00:47:45;;;;;;;;;;;;;;;26.72;44.79;94243.38;2941648;40;19973;-79
2021/07/31 00:49:47;;;;;;;;;;;;;;;26.74;44.53;94241.22;2950606;40;20419;-79
2021/07/31 00:51:48;;;;;;;;;;;;;;;26.41;45.30;94247.91;2941077;40;19941;-80
2021/07/31 00:53:50;;;;;;;;;;;;;;;26.30;45.58;94239.06;2948597;40;20019;-78
2021/07/31 00:55:53;;;;;;;;;;;;;;;26.27;45.59;94242.28;2947775;40;19937;-80
2021/07/31 00:57:55;;;;;;;;;;;;;;;26.40;45.35;94237.47;2947762;40;19947;-79
2021/07/31 00:59:56;;;;;;;;;;;;;;;26.58;44.59;94233.44;2950736;40;19991;-79
2021/07/31 01:01:58;;;;;;;;;;;;;;;26.71;44.22;94236.38;2942508;40;20291;-78
2021/07/31 01:03:59;;;;;;;;;;;;;;;26.81;43.89;94238.25;2952416;40;20090;-79
2021/07/31 01:06:01;;;;;;;;;;;;;;;26.89;43.62;94235.00;2951345;40;20262;-79
2021/07/31 01:08:03;;;;;;;;;;;;;;;26.98;43.60;94231.75;2951014;40;19937;-80
2021/07/31 01:10:04;;;;;;;;;;;;;;;27.08;43.21;94235.22;2954412;40;20322;-80
2021/07/31 01:12:06;;;;;;;;;;;;;;;27.16;42.66;94225.78;2948333;40;19945;-79
2021/07/31 01:14:07;;;;;;;;;;;;;;;27.23;42.53;94223.63;2947744;40;19995;-78
2021/07/31 01:16:09;;;;;;;;;;;;;;;26.87;43.11;94229.09;2954538;40;20304;-78
2021/07/31 01:18:11;;;;;;;;;;;;;;;26.50;44.07;94219.47;2956758;40;20012;-77
2021/07/31 01:20:12;;;;;;;;;;;;;;;26.49;43.96;94220.53;2952644;40;20290;-81
2021/07/31 01:22:14;;;;;;;;;;;;;;;26.47;43.85;94222.66;2950292;40;20257;-79
2021/07/31 01:24:16;;;;;;;;;;;;;;;26.50;43.42;94219.47;2952968;40;20039;-80
2021/07/31 01:26:17;;;;;;;;;;;;;;;26.37;43.64;94228.03;2948174;40;20289;-80
2021/07/31 01:28:19;;;;;;;;;;;;;;;26.12;44.15;94220.81;2941804;40;20291;-80
2021/07/31 01:30:21;;;;;;;;;;;;;;;25.98;44.42;94225.88;2947330;40;19949;-79
2021/07/31 01:32:22;;;;;;;;;;;;;;;25.99;44.60;94227.50;2947993;40;19953;-69
2021/07/31 01:34:24;;;;;;;;;;;;;;;26.08;44.37;94219.72;2950325;40;20304;-68
2021/07/31 01:36:25;;;;;;;;;;;;;;;25.96;44.34;94219.97;2948144;40;19953;-68
2021/07/31 01:38:27;;;;;;;;;;;;;;;25.91;44.41;94214.59;2941495;40;19949;-67
2021/07/31 01:40:28;;;;;;;;;;;;;;;25.93;44.41;94217.84;2950426;40;19945;-80
2021/07/31 01:42:30;;;;;;;;;;;;;;;26.05;44.24;94223.75;2950663;40;20082;-79
2021/07/31 01:44:31;;;;;;;;;;;;;;;26.20;44.22;94219.44;2950805;40;19952;-80
2021/07/31 01:46:33;;;;;;;;;;;;;;;26.12;44.18;94213.56;2954612;40;19960;-79
2021/07/31 01:48:35;;;;;;;;;;;;;;;26.17;44.40;94220.00;2947949;40;19972;-80
2021/07/31 01:50:39;;;;;;;;;;;;;;;26.19;44.23;94220.53;2949474;40;20388;-79
2021/07/31 01:52:41;;;;;;;;;;;;;;;26.25;44.33;94224.84;2950195;40;20296;-79
2021/07/31 01:54:42;;;;;;;;;;;;;;;26.28;44.48;94211.66;2950565;40;19981;-80
2021/07/31 01:56:47;;;;;;;;;;;;;;;26.38;44.05;94212.75;2947490;40;20019;-78
2021/07/31 01:58:48;;;;;;;;;;;;;;;26.42;44.35;94214.63;2949596;40;19949;-70
2021/07/31 02:00:54;;;;;;;;;;;;;;;26.44;44.22;94209.78;2944232;40;19941;-69
2021/07/31 02:02:55;;;;;;;;;;;;;;;26.43;44.15;94205.47;2950271;40;19944;-69
2021/07/31 02:04:57;;;;;;;;;;;;;;;26.46;44.03;94218.38;2950716;40;19945;-70
2021/07/31 02:06:59;;;;;;;;;;;;;;;26.47;44.06;94211.91;2945148;40;20024;-68
2021/07/31 02:09:00;;;;;;;;;;;;;;;26.50;43.79;94222.16;2936711;40;19945;-69
2021/07/31 02:11:02;;;;;;;;;;;;;;;26.50;43.95;94214.09;2943676;40;19956;-70
2021/07/31 02:13:04;;;;;;;;;;;;;;;26.51;43.78;94221.06;2949126;40;20004;-69
2021/07/31 02:15:06;;;;;;;;;;;;;;;26.52;43.78;94225.38;2949551;40;20316;-69
2021/07/31 02:17:07;;;;;;;;;;;;;;;26.48;44.24;94224.28;2950369;40;19949;-69
2021/07/31 02:19:09;;;;;;;;;;;;;;;26.36;44.34;94223.75;2950614;40;20520;-69
2021/07/31 02:21:10;;;;;;;;;;;;;;;26.16;44.67;94224.56;2949931;40;20076;-69
2021/07/31 02:23:12;;;;;;;;;;;;;;;25.96;44.75;94228.03;2947968;40;19957;-69
2021/07/31 02:25:13;;;;;;;;;;;;;;;25.88;45.03;94218.63;2943881;40;19942;-69
2021/07/31 02:27:15;;;;;;;;;;;;;;;25.80;45.02;94219.13;2947536;40;20031;-69
2021/07/31 02:29:17;;;;;;;;;;;;;;;25.80;44.93;94226.38;2941504;40;20068;-68
2021/07/31 02:31:18;;;;;;;;;;;;;;;25.85;45.07;94223.69;2950649;40;19941;-79
2021/07/31 02:33:20;;;;;;;;;;;;;;;25.84;45.03;94227.47;2946208;40;20269;-79
2021/07/31 02:35:21;;;;;;;;;;;;;;;25.73;45.30;94235.47;2949506;40;20314;-78
2021/07/31 02:37:23;;;;;;;;;;;;;;;25.65;45.26;94238.66;2945171;40;20004;-69
2021/07/31 02:39:25;;;;;;;;;;;;;;;25.21;46.31;94232.88;2950374;40;20327;-68
2021/07/31 02:41:26;;;;;;;;;;;;;;;24.96;47.21;94231.69;2950429;40;19949;-69
2021/07/31 02:43:28;;;;;;;;;;;;;;;24.90;47.41;94235.38;2950437;40;19941;-70
2021/07/31 02:45:29;;;;;;;;;;;;;;;24.86;47.59;94236.97;2948758;40;20308;-69
2021/07/31 02:47:31;;;;;;;;;;;;;;;25.00;47.23;94235.44;2946831;40;20221;-68
2021/07/31 02:49:33;;;;;;;;;;;;;;;25.20;46.79;94236.63;2949809;40;19945;-69
2021/07/31 02:51:34;;;;;;;;;;;;;;;25.40;46.43;94236.72;2946418;40;19995;-69
2021/07/31 02:53:36;;;;;;;;;;;;;;;25.55;46.10;94233.28;2951299;40;21032;-80
2021/07/31 02:55:38;;;;;;;;;;;;;;;25.67;45.83;94233.84;2949794;40;20026;-80
2021/07/31 02:57:39;;;;;;;;;;;;;;;25.78;45.69;94233.88;2949866;40;20309;-80
2021/07/31 02:59:41;;;;;;;;;;;;;;;25.88;45.43;94239.28;2950385;40;20027;-78
2021/07/31 03:01:42;;;;;;;;;;;;;;;25.89;45.35;94238.22;2950501;40;19953;-78
2021/07/31 03:03:46;;;;;;;;;;;;;;;25.91;45.05;94239.56;2950250;40;20023;-79
2021/07/31 03:05:54;;;;;;;;;;;;;;;25.97;45.12;94237.69;2940978;40;19954;-78
2021/07/31 03:07:56;;;;;;;;;;;;;;;25.96;45.03;94244.13;2941706;40;20037;-80
2021/07/31 03:09:58;;;;;;;;;;;;;;;25.99;45.18;94237.44;2948799;40;19949;-79
2021/07/31 03:12:00;;;;;;;;;;;;;;;26.02;45.20;94237.69;2951558;40;20026;-80
2021/07/31 03:14:02;;;;;;;;;;;;;;;26.04;45.12;94243.59;2956380;40;19975;-78
2021/07/31 03:16:04;;;;;;;;;;;;;;;26.04;45.16;94240.13;2955760;40;19956;-80
2021/07/31 03:18:06;;;;;;;;;;;;;;;26.04;44.97;94240.91;2950525;40;19992;-79
2021/07/31 03:20:08;;;;;;;;;;;;;;;26.06;45.08;94246.81;2950597;40;19969;-80
2021/07/31 03:22:09;;;;;;;;;;;;;;;26.12;44.67;94250.34;2945690;40;19946;-79
2021/07/31 03:24:11;;;;;;;;;;;;;;;26.14;44.58;94243.63;2949530;40;19963;-79
2021/07/31 03:26:13;;;;;;;;;;;;;;;26.16;44.74;94243.34;2947034;40;20000;-78
2021/07/31 03:28:14;;;;;;;;;;;;;;;26.17;44.50;94244.16;2948898;40;19975;-78
2021/07/31 03:30:16;;;;;;;;;;;;;;;26.22;44.54;94249.53;2950472;40;20030;-78
2021/07/31 03:32:18;;;;;;;;;;;;;;;26.21;44.72;94247.91;2950207;40;20003;-79
2021/07/31 03:34:21;;;;;;;;;;;;;;;26.23;44.64;94240.41;2946958;40;19973;-80
2021/07/31 03:36:22;;;;;;;;;;;;;;;26.24;44.82;94242.00;2949243;40;19933;-69
2021/07/31 03:38:24;;;;;;;;;;;;;;;26.25;44.63;94244.44;2949819;40;20075;-69
2021/07/31 03:40:25;;;;;;;;;;;;;;;26.25;44.95;94241.75;2949936;40;19962;-69
2021/07/31 03:42:27;;;;;;;;;;;;;;;26.26;44.91;94237.19;2947741;40;20286;-70
2021/07/31 03:44:28;;;;;;;;;;;;;;;26.26;45.14;94232.59;2948594;40;19964;-69
2021/07/31 03:46:30;;;;;;;;;;;;;;;26.29;45.40;94242.81;2949334;40;19941;-68
2021/07/31 03:48:32;;;;;;;;;;;;;;;26.33;45.25;94243.09;2950460;40;19943;-69
2021/07/31 03:50:37;;;;;;;;;;;;;;;26.40;45.24;94240.16;2948116;40;20015;-68
2021/07/31 03:52:38;;;;;;;;;;;;;;;26.47;44.96;94241.47;2946351;40;19938;-67
2021/07/31 03:54:40;;;;;;;;;;;;;;;26.52;44.99;94244.16;2941844;40;20332;-68
2021/07/31 03:56:42;;;;;;;;;;;;;;;26.57;45.05;94242.59;2941388;40;19954;-68
2021/07/31 03:58:43;;;;;;;;;;;;;;;26.65;44.97;94247.38;2954920;40;19949;-69
2021/07/31 04:00:45;;;;;;;;;;;;;;;26.68;44.89;94244.19;2951400;40;19945;-69
2021/07/31 04:02:46;;;;;;;;;;;;;;;26.74;44.55;94245.78;2948115;40;20023;-69
2021/07/31 04:04:48;;;;;;;;;;;;;;;26.63;44.97;94244.16;2950630;40;19976;-68
2021/07/31 04:06:50;;;;;;;;;;;;;;;26.24;46.08;94253.56;2939645;40;20373;-68
2021/07/31 04:08:51;;;;;;;;;;;;;;;25.45;47.48;94257.41;2949142;40;19940;-69
2021/07/31 04:10:53;;;;;;;;;;;;;;;24.52;50.15;94256.84;2951337;40;20018;-68
2021/07/31 04:12:55;;;;;;;;;;;;;;;24.23;50.79;94259.00;2951143;40;19989;-78
2021/07/31 04:14:57;;;;;;;;;;;;;;;24.06;50.89;94260.97;2942480;40;20459;-79
2021/07/31 04:17:00;;;;;;;;;;;;;;;24.03;51.23;94266.84;2951603;40;20275;-81
2021/07/31 04:19:02;;;;;;;;;;;;;;;23.93;51.37;94267.56;2951415;40;20337;-83
2021/07/31 04:21:07;;;;;;;;;;;;;;;23.77;51.82;94260.41;2951282;40;20293;-82
2021/07/31 04:23:08;;;;;;;;;;;;;;;23.78;51.72;94270.06;2951195;40;19933;-80
2021/07/31 04:25:10;;;;;;;;;;;;;;;23.71;52.00;94268.38;2955479;40;19940;-79
2021/07/31 04:27:11;;;;;;;;;;;;;;;23.80;52.35;94273.31;2948310;40;20298;-80
2021/07/31 04:29:13;;;;;;;;;;;;;;;23.65;52.45;94276.59;2952063;40;20247;-82
2021/07/31 04:31:15;;;;;;;;;;;;;;;23.62;52.69;94280.59;2951894;40;19949;-81
2021/07/31 04:33:17;;;;;;;;;;;;;;;23.53;53.25;94279.38;2950936;40;19945;-79
2021/07/31 04:35:19;;;;;;;;;;;;;;;23.38;54.20;94285.38;2951711;40;19933;-79
2021/07/31 04:37:21;;;;;;;;;;;;;;;23.44;54.30;94289.72;2950534;40;20047;-80
2021/07/31 04:39:22;;;;;;;;;;;;;;;23.56;54.43;94289.59;2950124;40;20035;-81
2021/07/31 04:41:24;;;;;;;;;;;;;;;23.88;53.26;94295.06;2942222;40;19949;-78
2021/07/31 04:43:25;;;;;;;;;;;;;;;24.00;53.43;94296.78;2942040;40;19963;-82
2021/07/31 04:45:27;;;;;;;;;;;;;;;24.18;53.08;94298.28;2947478;40;20027;-80
2021/07/31 04:47:35;;;;;;;;;;;;;;;24.03;53.87;94302.44;2953724;40;19941;-81
2021/07/31 04:49:37;;;;;;;;;;;;;;;24.13;53.83;94301.72;2955130;40;19937;-79
2021/07/31 04:51:38;;;;;;;;;;;;;;;24.31;53.43;94306.72;2952211;40;20039;-81
2021/07/31 04:53:40;;;;;;;;;;;;;;;24.45;53.18;94307.09;2949745;40;19937;-82
2021/07/31 04:55:41;;;;;;;;;;;;;;;24.28;53.83;94309.09;2954756;40;19956;-82
2021/07/31 04:57:43;;;;;;;;;;;;;;;24.17;54.13;94312.72;2955016;40;20301;-81
2021/07/31 04:59:45;;;;;;;;;;;;;;;24.24;54.01;94316.00;2951417;40;20035;-81
2021/07/31 05:01:46;;;;;;;;;;;;;;;24.33;53.80;94309.94;2949201;40;19941;-80
2021/07/31 05:03:48;;;;;;;;;;;;;;;24.57;53.73;94315.00;2951506;40;19944;-81
2021/07/31 05:05:50;;;;;;;;;;;;;;;24.82;52.63;94314.38;2953905;40;19948;-81
2021/07/31 05:07:51;;;;;;;;;;;;;;;25.12;52.08;94319.13;2951293;40;20168;-81
2021/07/31 05:09:53;;;;;;;;;;;;;;;25.43;51.27;94316.66;2954418;40;19944;-80
2021/07/31 05:11:54;;;;;;;;;;;;;;;25.72;50.56;94317.00;2959347;40;19944;-82
2021/07/31 05:13:56;;;;;;;;;;;;;;;25.89;49.79;94314.16;2953192;40;20058;-80
2021/07/31 05:15:57;;;;;;;;;;;;;;;26.09;49.48;94326.84;2951702;40;19936;-81
2021/07/31 05:17:59;;;;;;;;;;;;;;;26.27;49.00;94317.47;2951530;40;20221;-82
2021/07/31 05:20:01;;;;;;;;;;;;;;;26.36;48.79;94321.22;2950819;40;19945;-84
2021/07/31 05:22:02;;;;;;;;;;;;;;;26.49;48.63;94314.53;2950903;40;19959;-83
2021/07/31 05:24:04;;;;;;;;;;;;;;;26.65;47.95;94317.25;2942414;40;19937;-84
2021/07/31 05:26:09;;;;;;;;;;;;;;;26.77;47.38;94317.78;2951106;40;19984;-81
2021/07/31 05:28:11;;;;;;;;;;;;;;;26.82;47.57;94316.97;2951362;40;20005;-81
2021/07/31 05:30:13;;;;;;;;;;;;;;;26.90;47.24;94319.91;2954522;40;20219;-83
2021/07/31 05:32:15;;;;;;;;;;;;;;;26.86;47.39;94318.84;2941844;40;20181;-80
2021/07/31 05:34:16;;;;;;;;;;;;;;;26.72;47.78;94326.66;2944829;40;20276;-81
2021/07/31 05:36:18;;;;;;;;;;;;;;;26.79;47.39;94329.06;2950460;40;19945;-80
2021/07/31 05:38:19;;;;;;;;;;;;;;;26.89;47.25;94323.69;2948027;40;20038;-79
2021/07/31 05:40:21;;;;;;;;;;;;;;;26.92;47.01;94330.41;2946437;40;20031;-80
2021/07/31 05:42:22;;;;;;;;;;;;;;;27.00;46.84;94323.69;2944615;40;19952;-80
2021/07/31 05:44:24;;;;;;;;;;;;;;;26.90;46.98;94329.88;2949770;40;20288;-79
2021/07/31 05:46:25;;;;;;;;;;;;;;;26.90;47.40;94330.66;2952493;40;20049;-78
2021/07/31 05:48:27;;;;;;;;;;;;;;;26.76;47.80;94326.94;2958123;40;19937;-79
2021/07/31 05:50:29;;;;;;;;;;;;;;;26.54;48.13;94327.16;2954686;40;19949;-80
2021/07/31 05:52:33;;;;;;;;;;;;;;;26.62;47.88;94333.91;2950181;40;19933;-78
2021/07/31 05:54:35;;;;;;;;;;;;;;;26.38;48.55;94334.41;2946300;40;20003;-80
2021/07/31 05:56:36;;;;;;;;;;;;;;;26.48;48.72;94334.41;2948852;40;19933;-79
2021/07/31 05:58:42;;;;;;;;;;;;;;;26.73;47.95;94332.81;2948003;40;20031;-79
2021/07/31 06:00:43;;;;;;;;;;;;;;;26.96;47.60;94329.59;2951494;40;20050;-79
2021/07/31 06:02:45;;;;;;;;;;;;;;;27.16;47.06;94325.25;2951261;40;19957;-80
2021/07/31 06:04:47;;;;;;;;;;;;;;;27.33;46.63;94333.84;2950723;40;19941;-80
2021/07/31 06:06:48;;;;;;;;;;;;;;;27.40;46.32;94332.75;2945913;40;19982;-80
2021/07/31 06:08:50;;;;;;;;;;;;;;;27.54;46.00;94331.13;2949072;40;19945;-80
2021/07/31 06:10:58;;;;;;;;;;;;;;;27.73;45.26;94325.94;2954855;40;19949;-81
2021/07/31 06:12:59;;;;;;;;;;;;;;;27.82;45.00;94320.78;2947506;40;19965;-79
2021/07/31 06:15:01;;;;;;;;;;;;;;;27.91;44.62;94324.53;2950834;40;20200;-82
2021/07/31 06:17:03;;;;;;;;;;;;;;;27.88;44.75;94317.81;2949280;40;20226;-81
2021/07/31 06:19:04;;;;;;;;;;;;;;;27.93;45.27;94323.16;2937317;40;19942;-81
2021/07/31 06:21:13;;;;;;;;;;;;;;;28.05;45.01;94322.84;2953151;40;19941;-80
2021/07/31 06:23:14;;;;;;;;;;;;;;;28.09;44.80;94320.41;2949655;40;19937;-78
2021/07/31 06:25:18;;;;;;;;;;;;;;;28.10;44.81;94317.44;2937283;40;20152;-80
2021/07/31 06:27:20;;;;;;;;;;;;;;;28.27;44.67;94318.97;2950246;40;20017;-82
2021/07/31 06:29:22;;;;;;;;;;;;;;;28.37;43.70;94308.91;2949387;40;19960;-79
2021/07/31 06:31:23;;;;;;;;;;;;;;;28.46;43.41;94311.81;2947257;40;19949;-79
2021/07/31 06:33:25;;;;;;;;;;;;;;;28.51;43.40;94306.41;2946431;40;19969;-81
2021/07/31 06:35:26;;;;;;;;;;;;;;;28.57;43.10;94312.56;2950787;40;19944;-81
2021/07/31 06:37:28;;;;;;;;;;;;;;;28.64;43.40;94318.44;2940921;40;19937;-81
2021/07/31 06:39:29;;;;;;;;;;;;;;;28.75;43.52;94309.19;2948309;40;19945;-82
2021/07/31 06:41:31;;;;;;;;;;;;;;;28.89;43.12;94306.66;2950739;40;19937;-81
2021/07/31 06:43:33;;;;;;;;;;;;;;;29.01;41.93;94306.25;2949446;40;19943;-81
2021/07/31 06:45:41;;;;;;;;;;;;;;;29.08;41.80;94305.91;2950461;40;19933;-69
2021/07/31 06:47:42;;;;;;;;;;;;;;;29.03;42.00;94304.09;2946907;40;20066;-70
2021/07/31 06:49:44;;;;;;;;;;;;;;;29.00;42.03;94299.28;2945428;40;19948;-69
2021/07/31 06:51:47;;;;;;;;;;;;;;;28.91;41.79;94307.16;2943753;40;20080;-70
2021/07/31 06:53:49;;;;;;;;;;;;;;;28.81;42.08;94309.94;2949163;40;20000;-69
2021/07/31 06:55:51;;;;;;;;;;;;;;;28.85;42.44;94302.91;2949651;40;20482;-69
2021/07/31 06:57:52;;;;;;;;;;;;;;;29.00;41.83;94305.47;2950224;40;19945;-70
2021/07/31 06:59:54;;;;;;;;;;;;;;;29.16;42.02;94299.94;2946089;40;20042;-80
2021/07/31 07:01:55;;;;;;;;;;;;;;;29.32;41.62;94306.78;2941417;40;20023;-81
2021/07/31 07:03:57;;;;;;;;;;;;;;;29.37;41.52;94303.25;2951411;40;20172;-81
2021/07/31 07:06:02;;;;;;;;;;;;;;;29.10;41.09;94301.09;2945720;40;19975;-83
2021/07/31 07:08:03;;;;;;;;;;;;;;;29.00;42.18;94304.66;2954397;40;19952;-81
2021/07/31 07:10:05;;;;;;;;;;;;;;;29.15;41.40;94306.44;2951106;40;19933;-79
2021/07/31 07:12:07;;;;;;;;;;;;;;;29.31;41.23;94304.38;2951453;40;20276;-80
2021/07/31 07:14:09;;;;;;;;;;;;;;;29.45;40.93;94304.47;2947649;40;20055;-82
2021/07/31 07:16:10;;;;;;;;;;;;;;;29.42;41.28;94305.06;2947380;40;19948;-78
2021/07/31 07:18:12;;;;;;;;;;;;;;;29.05;41.69;94306.50;2949769;40;19948;-80
2021/07/31 07:20:14;;;;;;;;;;;;;;;28.82;41.23;94300.75;2951294;40;19991;-80
2021/07/31 07:22:15;;;;;;;;;;;;;;;28.85;41.82;94304.81;2948233;40;20031;-78
2021/07/31 07:24:17;;;;;;;;;;;;;;;29.10;41.83;94301.88;2954944;40;19945;-79
2021/07/31 07:26:18;;;;;;;;;;;;;;;29.16;41.23;94295.34;2955571;40;20023;-80
2021/07/31 07:28:20;;;;;;;;;;;;;;;29.09;41.42;94296.75;2953712;40;19937;-79
2021/07/31 07:30:21;;;;;;;;;;;;;;;29.16;41.59;94303.44;2947684;40;20318;-80
2021/07/31 07:32:23;;;;;;;;;;;;;;;29.06;41.66;94300.00;2936024;40;20058;-79
2021/07/31 07:34:24;;;;;;;;;;;;;;;28.80;42.40;94300.25;2949669;40;19957;-80
2021/07/31 07:36:26;;;;;;;;;;;;;;;28.97;42.40;94305.22;2940511;40;20515;-79
2021/07/31 07:38:28;;;;;;;;;;;;;;;29.10;42.12;94301.88;2950327;40;19961;-69
2021/07/31 07:40:29;;;;;;;;;;;;;;;29.22;41.86;94304.19;2951213;40;20014;-70
2021/07/31 07:42:31;;;;;;;;;;;;;;;29.20;41.60;94304.47;2950022;40;20031;-69
2021/07/31 07:44:33;;;;;;;;;;;;;;;29.43;41.59;94312.88;2949798;40;20009;-69
2021/07/31 07:46:34;;;;;;;;;;;;;;;29.66;41.13;94311.25;2949961;40;19937;-70
2021/07/31 07:48:36;;;;;;;;;;;;;;;29.94;40.75;94300.69;2949847;40;19948;-70
2021/07/31 07:50:38;;;;;;;;;;;;;;;30.18;40.12;94306.03;2949977;40;19941;-70
2021/07/31 07:52:39;;;;;;;;;;;;;;;30.38;39.09;94304.97;2939430;40;19989;-69
2021/07/31 07:54:41;;;;;;;;;;;;;;;30.53;39.28;94304.72;2950012;40;19938;-70
2021/07/31 07:56:42;;;;;;;;;;;;;;;30.61;39.23;94300.56;2949572;40;20369;-70
2021/07/31 07:58:44;;;;;;;;;;;;;;;29.94;39.70;94298.81;2949973;40;19999;-69
2021/07/31 08:00:45;;;;;;;;;;;;;;;29.98;40.00;94301.72;2946757;40;19945;-69
2021/07/31 08:02:47;;;;;;;;;;;;;;;30.22;39.39;94296.22;2949855;40;20045;-69
2021/07/31 08:04:49;;;;;;;;;;;;;;;30.56;39.21;94298.72;2949534;40;20308;-69
2021/07/31 08:06:50;;;;;;;;;;;;;;;30.86;38.77;94293.94;2947770;40;20022;-69
2021/07/31 08:08:52;;;;;;;;;;;;;;;30.97;38.35;94292.66;2947570;40;19953;-70
2021/07/31 08:10:53;;;;;;;;;;;;;;;31.10;38.30;94293.00;2950214;40;20283;-70
2021/07/31 08:12:55;;;;;;;;;;;;;;;31.16;38.12;94286.41;2950098;40;20186;-68
2021/07/31 08:14:57;;;;;;;;;;;;;;;31.01;37.84;94285.56;2946461;40;20276;-69
2021/07/31 08:16:58;;;;;;;;;;;;;;;30.79;38.43;94283.50;2952409;40;19957;-68
2021/07/31 08:19:01;;;;;;;;;;;;;;;30.92;38.17;94283.84;2950093;40;19956;-69
2021/07/31 08:21:03;;;;;;;;;;;;;;;31.01;37.79;94285.56;2946046;40;19982;-81
2021/07/31 08:23:04;;;;;;;;;;;;;;;30.95;37.83;94286.75;2952676;40;19945;-81
2021/07/31 08:25:06;;;;;;;;;;;;;;;31.08;37.71;94285.19;2951393;40;19965;-79
2021/07/31 08:27:08;;;;;;;;;;;;;;;31.10;37.48;94288.38;2949145;40;20280;-81
2021/07/31 08:29:10;;;;;;;;;;;;;;;31.05;37.27;94285.00;2950458;40;20015;-80
2021/07/31 08:31:12;;;;;;;;;;;;;;;30.94;37.92;94279.75;2950920;40;19953;-81
2021/07/31 08:33:13;;;;;;;;;;;;;;;31.07;36.86;94289.00;2950116;40;19953;-79
2021/07/31 08:35:15;;;;;;;;;;;;;;;31.18;36.87;94284.19;2950958;40;20375;-82
2021/07/31 08:37:17;;;;;;;;;;;;;;;31.15;36.90;94295.63;2949138;40;20017;-80
2021/07/31 08:39:19;;;;;;;;;;;;;;;30.81;36.04;94281.28;2947117;40;19948;-78
2021/07/31 08:41:21;;;;;;;;;;;;;;;30.79;36.61;94278.09;2947696;40;19966;-80
2021/07/31 08:43:23;;;;;;;;;;;;;;;31.13;36.53;94279.69;2951567;40;20072;-80
2021/07/31 08:45:24;;;;;;;;;;;;;;;31.49;36.10;94278.22;2956703;40;20022;-81
2021/07/31 08:47:29;;;;;;;;;;;;;;;31.77;35.19;94284.41;2955794;40;19941;-80
2021/07/31 08:49:34;;;;;;;;;;;;;;;31.98;34.95;94285.63;2951534;40;19957;-79
2021/07/31 08:51:35;;;;;;;;;;;;;;;31.87;34.83;94283.41;2946722;40;20353;-80
2021/07/31 08:53:37;;;;;;;;;;;;;;;31.70;35.54;94284.03;2952149;40;20023;-80
2021/07/31 08:55:41;;;;;;;;;;;;;;;31.65;35.22;94276.81;2951756;40;20030;-80
2021/07/31 08:57:44;;;;;;;;;;;;;;;31.67;35.25;94273.81;2942540;40;20037;-81
2021/07/31 08:59:46;;;;;;;;;;;;;;;31.68;35.40;94265.38;2950902;40;20329;-78
2021/07/31 09:01:47;;;;;;;;;;;;;;;31.90;35.57;94266.56;2949068;40;19945;-80
2021/07/31 09:03:54;;;;;;;;;;;;;;;32.11;35.07;94258.81;2944551;40;19937;-80
2021/07/31 09:05:56;;;;;;;;;;;;;;;32.29;34.43;94259.75;2946091;40;19945;-80
2021/07/31 09:07:58;;;;;;;;;;;;;;;32.45;33.88;94258.28;2950655;40;20051;-80
2021/07/31 09:10:20;;;;;;;;;;;;;;;32.69;34.12;94260.72;2955693;40;20269;-80
2021/07/31 09:12:21;;;;;;;;;;;;;;;32.90;33.25;94258.28;2951576;40;19985;-80
2021/07/31 09:14:23;;;;;;;;;;;;;;;33.02;33.42;94263.16;2948430;40;19952;-80
2021/07/31 09:16:25;;;;;;;;;;;;;;;33.02;32.96;94261.25;2946893;40;20225;-82
2021/07/31 09:18:31;;;;;;;;;;;;;;;33.00;32.42;94257.25;2948045;40;19949;-82
2021/07/31 09:20:32;;;;;;;;;;;;;;;32.59;33.14;94252.81;2942667;40;20401;-79
2021/07/31 09:22:34;;;;;;;;;;;;;;;32.44;33.26;94245.88;2940825;40;19972;-82
2021/07/31 09:24:35;;;;;;;;;;;;;;;32.60;33.04;94249.81;2948640;40;19960;-81
2021/07/31 09:26:38;;;;;;;;;;;;;;;32.57;32.99;94242.31;2949233;40;19957;-79
2021/07/31 09:28:42;;;;;;;;;;;;;;;32.51;33.63;94238.09;2947415;40;19937;-80
2021/07/31 09:30:53;;;;;;;;;;;;;;;32.75;32.78;94240.50;2950327;40;19940;-80
2021/07/31 09:33:01;;;;;;;;;;;;;;;32.94;33.03;94236.78;2953772;40;20407;-79
2021/07/31 09:35:04;;;;;;;;;;;;;;;32.82;32.40;94240.84;2936505;40;19982;-81
2021/07/31 09:37:27;;;;;;;;;;;;;;;32.79;32.56;94232.56;2950525;40;19988;-82
2021/07/31 09:39:45;;;;;;;;;;;;;;;32.69;32.58;94238.22;2954342;40;20296;-82
2021/07/31 09:41:47;;;;;;;;;;;;;;;33.08;32.36;94240.22;2949273;40;20005;-81
2021/07/31 09:44:02;;;;;;;;;;;;;;;33.35;31.56;94236.50;2950586;40;20019;-81
2021/07/31 09:46:03;;;;;;;;;;;;;;;33.61;31.21;94231.19;2949477;40;20290;-81
2021/07/31 09:48:05;;;;;;;;;;;;;;;33.50;30.90;94229.84;2949110;40;19945;-80
2021/07/31 09:50:07;;;;;;;;;;;;;;;33.21;31.12;94227.66;2947999;40;20297;-82
2021/07/31 09:52:18;;;;;;;;;;;;;;;33.24;30.98;94225.13;2950819;40;19945;-78
2021/07/31 09:54:20;;;;;;;;;;;;;;;33.21;31.28;94224.94;2948424;40;19943;-69
2021/07/31 09:56:22;;;;;;;;;;;;;;;33.49;31.50;94222.00;2948283;40;20013;-69
2021/07/31 09:58:24;;;;;;;;;;;;;;;33.73;31.25;94217.00;2946094;40;20007;-68
2021/07/31 10:00:25;;;;;;;;;;;;;;;33.93;30.46;94217.50;2948043;40;19953;-68
2021/07/31 10:02:30;;;;;;;;;;;;;;;34.08;29.87;94216.22;2947599;40;20043;-69
2021/07/31 10:04:32;;;;;;;;;;;;;;;33.78;30.12;94207.88;2949313;40;19970;-69
2021/07/31 10:06:33;;;;;;;;;;;;;;;33.59;29.92;94208.13;2949548;40;19949;-70
2021/07/31 10:08:35;;;;;;;;;;;;;;;33.74;30.05;94207.72;2947897;40;19946;-69
2021/07/31 10:10:37;;;;;;;;;;;;;;;33.52;30.61;94210.53;2949057;40;19941;-69
2021/07/31 10:12:39;;;;;;;;;;;;;;;33.65;30.58;94204.97;2950472;40;19991;-68
2021/07/31 10:14:41;;;;;;;;;;;;;;;33.75;29.87;94205.78;2950537;40;19944;-70
2021/07/31 10:16:46;;;;;;;;;;;;;;;33.97;29.79;94199.44;2948739;40;20026;-68
2021/07/31 10:18:56;;;;;;;;;;;;;;;34.21;29.76;94199.78;2947982;40;20620;-70
2021/07/31 10:21:05;;;;;;;;;;;;;;;34.08;29.46;94198.00;2940574;40;19993;-68
2021/07/31 10:23:07;;;;;;;;;;;;;;;33.99;29.50;94192.56;2947691;40;20038;-68
2021/07/31 10:25:16;;;;;;;;;;;;;;;34.24;29.54;94203.78;2950483;40;20246;-69
2021/07/31 10:27:17;;;;;;;;;;;;;;;34.31;28.95;94192.41;2933140;40;20382;-68
2021/07/31 10:29:25;;;;;;;;;;;;;;;34.38;29.21;94190.03;2949010;40;20300;-69
2021/07/31 10:31:33;;;;;;;;;;;;;;;34.54;28.65;94190.31;2950066;40;19948;-68
2021/07/31 10:33:45;;;;;;;;;;;;;;;34.25;29.56;94191.78;2951175;40;20042;-69
2021/07/31 10:35:46;;;;;;;;;;;;;;;34.49;29.42;94183.13;2943986;40;19941;-69
2021/07/31 10:37:48;;;;;;;;;;;;;;;34.71;29.12;94189.50;2948594;40;20390;-69